sensor_id;sensor_type;location;lat;lon;timestamp;temperature;humidity
2158;DHT22;41972;48.774;9.282;2022-09-09T00:02:08;13.30;99.90
2158;DHT22;41972;48.774;9.282;2022-09-09T00:04:37;13.30;99.90
2158;DHT22;41972;48.774;9.282;2022-09-09T00:09:51;13.20;99.90
2158;DHT22;41972;48.774;9.282;2022-09-09T00:15:21;13.20;99.90
2158;DHT22;41972;48.774;9.282;2022-09-09T00:17:54;13.10;99.90
2158;DHT22;41972;48.774;9.282;2022-09-09T00:21:05;13.10;99.90
2158;DHT22;41972;48.774;9.282;2022-09-09T00:23:35;13.10;99.90
2158;DHT22;41972;48.774;9.282;2022-09-09T00:26:11;13.10;99.90
2158;DHT22;41972;48.774;9.282;2022-09-09T00:31:29;13.20;99.90
2158;DHT22;41972;48.774;9.282;2022-09-09T00:34:00;13.20;99.90
2158;DHT22;41972;48.774;9.282;2022-09-09T00:36:28;13.20;99.90
2158;DHT22;41972;48.774;9.282;2022-09-09T00:39:00;13.30;99.90
2158;DHT22;41972;48.774;9.282;2022-09-09T00:44:20;13.60;99.90
2158;DHT22;41972;48.774;9.282;2022-09-09T00:46:50;13.80;99.90
2158;DHT22;41972;48.774;9.282;2022-09-09T00:55:03;14.10;99.90
2158;DHT22;41972;48.774;9.282;2022-09-09T00:57:32;14.10;99.90
2158;DHT22;41972;48.774;9.282;2022-09-09T01:03:19;14.40;99.90
2158;DHT22;41972;48.774;9.282;2022-09-09T01:06:31;14.40;99.90
2158;DHT22;41972;48.774;9.282;2022-09-09T01:14:29;14.70;99.90
2158;DHT22;41972;48.774;9.282;2022-09-09T01:16:59;14.70;99.90
2158;DHT22;41972;48.774;9.282;2022-09-09T01:22:12;14.80;99.90
2158;DHT22;41972;48.774;9.282;2022-09-09T01:27:40;14.60;99.90
2158;DHT22;41972;48.774;9.282;2022-09-09T01:30:12;14.30;99.90
2158;DHT22;41972;48.774;9.282;2022-09-09T01:32:48;14.30;99.90
2158;DHT22;41972;48.774;9.282;2022-09-09T01:37:51;14.20;99.90
2158;DHT22;41972;48.774;9.282;2022-09-09T01:40:17;14.30;99.90
2158;DHT22;41972;48.774;9.282;2022-09-09T01:42:42;14.30;99.90
2158;DHT22;41972;48.774;9.282;2022-09-09T01:45:09;14.30;99.90
2158;DHT22;41972;48.774;9.282;2022-09-09T01:47:35;14.30;99.90
2158;DHT22;41972;48.774;9.282;2022-09-09T01:50:01;14.40;99.90
2158;DHT22;41972;48.774;9.282;2022-09-09T01:52:29;14.40;99.90
2158;DHT22;41972;48.774;9.282;2022-09-09T01:54:55;14.40;99.90
2158;DHT22;41972;48.774;9.282;2022-09-09T01:57:23;14.50;99.90
2158;DHT22;41972;48.774;9.282;2022-09-09T02:00:09;14.30;99.90
2158;DHT22;41972;48.774;9.282;2022-09-09T02:03:00;14.10;99.90
2158;DHT22;41972;48.774;9.282;2022-09-09T02:08:00;13.70;99.90
2158;DHT22;41972;48.774;9.282;2022-09-09T02:10:33;13.60;99.90
2158;DHT22;41972;48.774;9.282;2022-09-09T02:13:09;13.60;99.90
2158;DHT22;41972;48.774;9.282;2022-09-09T02:15:56;13.50;99.90
2158;DHT22;41972;48.774;9.282;2022-09-09T02:21:19;13.60;99.90
2158;DHT22;41972;48.774;9.282;2022-09-09T02:23:47;13.80;99.90
2158;DHT22;41972;48.774;9.282;2022-09-09T02:26:16;13.80;99.90
2158;DHT22;41972;48.774;9.282;2022-09-09T02:28:50;13.70;99.90
2158;DHT22;41972;48.774;9.282;2022-09-09T02:31:19;13.70;99.90
2158;DHT22;41972;48.774;9.282;2022-09-09T02:33:50;13.70;99.90
2158;DHT22;41972;48.774;9.282;2022-09-09T02:36:18;13.60;99.90
2158;DHT22;41972;48.774;9.282;2022-09-09T02:38:46;13.60;99.90
2158;DHT22;41972;48.774;9.282;2022-09-09T02:41:20;13.50;99.90
2158;DHT22;41972;48.774;9.282;2022-09-09T02:43:48;13.50;99.90
2158;DHT22;41972;48.774;9.282;2022-09-09T02:52:15;13.20;99.90
2158;DHT22;41972;48.774;9.282;2022-09-09T02:54:42;13.00;99.90
2158;DHT22;41972;48.774;9.282;2022-09-09T02:59:37;12.70;99.90
2158;DHT22;41972;48.774;9.282;2022-09-09T03:02:03;12.80;99.90
2158;DHT22;41972;48.774;9.282;2022-09-09T03:04:29;12.60;99.90
2158;DHT22;41972;48.774;9.282;2022-09-09T03:06:56;12.40;99.90
2158;DHT22;41972;48.774;9.282;2022-09-09T03:09:22;12.30;99.90
2158;DHT22;41972;48.774;9.282;2022-09-09T03:11:48;12.40;99.90
2158;DHT22;41972;48.774;9.282;2022-09-09T03:14:15;12.40;99.90
2158;DHT22;41972;48.774;9.282;2022-09-09T03:16:40;12.50;99.90
2158;DHT22;41972;48.774;9.282;2022-09-09T03:19:08;12.60;99.90
2158;DHT22;41972;48.774;9.282;2022-09-09T03:21:34;12.80;99.90
2158;DHT22;41972;48.774;9.282;2022-09-09T03:23:59;13.20;99.90
2158;DHT22;41972;48.774;9.282;2022-09-09T03:26:25;13.40;99.90
2158;DHT22;41972;48.774;9.282;2022-09-09T03:28:50;13.70;99.90
2158;DHT22;41972;48.774;9.282;2022-09-09T03:31:17;13.80;99.90
2158;DHT22;41972;48.774;9.282;2022-09-09T03:33:43;13.90;99.90
2158;DHT22;41972;48.774;9.282;2022-09-09T03:36:09;14.00;99.90
2158;DHT22;41972;48.774;9.282;2022-09-09T03:38:35;14.00;99.90
2158;DHT22;41972;48.774;9.282;2022-09-09T03:41:01;14.00;99.90
2158;DHT22;41972;48.774;9.282;2022-09-09T03:43:28;13.90;99.90
2158;DHT22;41972;48.774;9.282;2022-09-09T03:45:54;13.90;99.90
2158;DHT22;41972;48.774;9.282;2022-09-09T03:48:23;14.00;99.90
2158;DHT22;41972;48.774;9.282;2022-09-09T03:50:51;14.00;99.90
2158;DHT22;41972;48.774;9.282;2022-09-09T03:53:19;13.90;99.90
2158;DHT22;41972;48.774;9.282;2022-09-09T03:55:46;13.70;99.90
2158;DHT22;41972;48.774;9.282;2022-09-09T03:58:16;13.50;99.90
2158;DHT22;41972;48.774;9.282;2022-09-09T04:00:44;13.40;99.90
2158;DHT22;41972;48.774;9.282;2022-09-09T04:03:17;13.40;99.90
2158;DHT22;41972;48.774;9.282;2022-09-09T04:05:43;13.50;99.90
2158;DHT22;41972;48.774;9.282;2022-09-09T04:08:09;13.30;99.90
2158;DHT22;41972;48.774;9.282;2022-09-09T04:10:34;13.30;99.90
2158;DHT22;41972;48.774;9.282;2022-09-09T04:13:05;13.50;99.90
2158;DHT22;41972;48.774;9.282;2022-09-09T04:15:31;13.60;99.90
2158;DHT22;41972;48.774;9.282;2022-09-09T04:17:57;13.60;99.90
2158;DHT22;41972;48.774;9.282;2022-09-09T04:20:23;13.50;99.90
2158;DHT22;41972;48.774;9.282;2022-09-09T04:22:49;13.50;99.90
2158;DHT22;41972;48.774;9.282;2022-09-09T04:25:14;13.40;99.90
2158;DHT22;41972;48.774;9.282;2022-09-09T04:27:40;13.40;99.90
2158;DHT22;41972;48.774;9.282;2022-09-09T04:30:07;13.40;99.90
2158;DHT22;41972;48.774;9.282;2022-09-09T04:32:35;13.50;99.90
2158;DHT22;41972;48.774;9.282;2022-09-09T04:35:02;13.50;99.90
2158;DHT22;41972;48.774;9.282;2022-09-09T04:37:28;13.60;99.90
2158;DHT22;41972;48.774;9.282;2022-09-09T04:39:54;13.70;99.90
2158;DHT22;41972;48.774;9.282;2022-09-09T04:42:19;13.90;99.90
2158;DHT22;41972;48.774;9.282;2022-09-09T04:44:45;14.00;99.90
2158;DHT22;41972;48.774;9.282;2022-09-09T04:47:11;14.10;99.90
2158;DHT22;41972;48.774;9.282;2022-09-09T04:49:37;14.10;99.90
2158;DHT22;41972;48.774;9.282;2022-09-09T04:52:03;14.10;99.90
2158;DHT22;41972;48.774;9.282;2022-09-09T04:54:29;14.10;99.90
2158;DHT22;41972;48.774;9.282;2022-09-09T04:56:55;14.20;99.90
2158;DHT22;41972;48.774;9.282;2022-09-09T04:59:21;14.20;99.90
2158;DHT22;41972;48.774;9.282;2022-09-09T05:01:47;14.10;99.90
2158;DHT22;41972;48.774;9.282;2022-09-09T05:04:13;14.00;99.90
2158;DHT22;41972;48.774;9.282;2022-09-09T05:06:40;14.10;99.90
2158;DHT22;41972;48.774;9.282;2022-09-09T05:09:06;13.90;99.90
2158;DHT22;41972;48.774;9.282;2022-09-09T05:11:32;14.00;99.90
2158;DHT22;41972;48.774;9.282;2022-09-09T05:14:01;13.90;99.90
2158;DHT22;41972;48.774;9.282;2022-09-09T05:16:27;13.80;99.90
2158;DHT22;41972;48.774;9.282;2022-09-09T05:18:52;13.90;99.90
2158;DHT22;41972;48.774;9.282;2022-09-09T05:21:20;13.90;99.90
2158;DHT22;41972;48.774;9.282;2022-09-09T05:23:46;13.80;99.90
2158;DHT22;41972;48.774;9.282;2022-09-09T05:26:15;13.90;99.90
2158;DHT22;41972;48.774;9.282;2022-09-09T05:28:40;13.90;99.90
2158;DHT22;41972;48.774;9.282;2022-09-09T05:31:08;14.10;99.90
2158;DHT22;41972;48.774;9.282;2022-09-09T05:33:35;14.10;99.90
2158;DHT22;41972;48.774;9.282;2022-09-09T05:36:04;14.30;99.90
2158;DHT22;41972;48.774;9.282;2022-09-09T05:38:31;14.40;99.90
2158;DHT22;41972;48.774;9.282;2022-09-09T05:40:57;14.60;99.90
2158;DHT22;41972;48.774;9.282;2022-09-09T05:43:24;14.70;99.90
2158;DHT22;41972;48.774;9.282;2022-09-09T05:46:01;14.80;99.90
2158;DHT22;41972;48.774;9.282;2022-09-09T05:48:29;14.80;99.90
2158;DHT22;41972;48.774;9.282;2022-09-09T05:50:55;14.80;99.90
2158;DHT22;41972;48.774;9.282;2022-09-09T05:53:20;14.70;99.90
2158;DHT22;41972;48.774;9.282;2022-09-09T05:55:46;14.60;99.90
2158;DHT22;41972;48.774;9.282;2022-09-09T05:58:13;14.60;99.90
2158;DHT22;41972;48.774;9.282;2022-09-09T06:00:39;14.60;99.90
2158;DHT22;41972;48.774;9.282;2022-09-09T06:03:05;14.70;99.90
2158;DHT22;41972;48.774;9.282;2022-09-09T06:05:31;14.90;99.90
2158;DHT22;41972;48.774;9.282;2022-09-09T06:07:56;15.00;99.90
2158;DHT22;41972;48.774;9.282;2022-09-09T06:10:23;15.00;99.90
2158;DHT22;41972;48.774;9.282;2022-09-09T06:12:52;15.20;99.90
2158;DHT22;41972;48.774;9.282;2022-09-09T06:15:18;15.20;99.90
2158;DHT22;41972;48.774;9.282;2022-09-09T06:17:43;15.20;99.90
2158;DHT22;41972;48.774;9.282;2022-09-09T06:20:10;15.10;99.90
2158;DHT22;41972;48.774;9.282;2022-09-09T06:22:39;15.10;99.90
2158;DHT22;41972;48.774;9.282;2022-09-09T06:25:07;15.20;99.90
2158;DHT22;41972;48.774;9.282;2022-09-09T06:27:33;15.20;99.90
2158;DHT22;41972;48.774;9.282;2022-09-09T06:29:58;15.30;99.90
2158;DHT22;41972;48.774;9.282;2022-09-09T06:32:24;15.20;99.90
2158;DHT22;41972;48.774;9.282;2022-09-09T06:34:52;15.20;99.90
2158;DHT22;41972;48.774;9.282;2022-09-09T06:37:17;15.30;99.90
2158;DHT22;41972;48.774;9.282;2022-09-09T06:39:44;15.40;99.90
2158;DHT22;41972;48.774;9.282;2022-09-09T06:42:09;15.40;99.90
2158;DHT22;41972;48.774;9.282;2022-09-09T06:44:35;15.50;99.90
2158;DHT22;41972;48.774;9.282;2022-09-09T06:47:01;15.40;99.90
2158;DHT22;41972;48.774;9.282;2022-09-09T06:49:27;15.60;99.90
2158;DHT22;41972;48.774;9.282;2022-09-09T06:51:53;15.60;99.90
2158;DHT22;41972;48.774;9.282;2022-09-09T06:54:19;15.60;99.90
2158;DHT22;41972;48.774;9.282;2022-09-09T06:56:45;15.70;99.90
2158;DHT22;41972;48.774;9.282;2022-09-09T06:59:11;16.00;99.90
2158;DHT22;41972;48.774;9.282;2022-09-09T07:01:42;16.30;99.90
2158;DHT22;41972;48.774;9.282;2022-09-09T07:04:09;16.40;99.90
2158;DHT22;41972;48.774;9.282;2022-09-09T07:06:39;16.30;99.90
2158;DHT22;41972;48.774;9.282;2022-09-09T07:09:07;16.60;99.90
2158;DHT22;41972;48.774;9.282;2022-09-09T07:11:39;16.90;99.90
2158;DHT22;41972;48.774;9.282;2022-09-09T07:14:05;17.00;99.90
2158;DHT22;41972;48.774;9.282;2022-09-09T07:16:30;17.40;99.90
2158;DHT22;41972;48.774;9.282;2022-09-09T07:18:58;17.60;99.90
2158;DHT22;41972;48.774;9.282;2022-09-09T07:21:26;17.90;99.90
2158;DHT22;41972;48.774;9.282;2022-09-09T07:23:53;18.00;99.90
2158;DHT22;41972;48.774;9.282;2022-09-09T07:26:21;18.50;99.90
2158;DHT22;41972;48.774;9.282;2022-09-09T07:28:48;18.60;99.90
2158;DHT22;41972;48.774;9.282;2022-09-09T07:31:19;18.10;99.90
2158;DHT22;41972;48.774;9.282;2022-09-09T07:33:46;17.90;99.90
2158;DHT22;41972;48.774;9.282;2022-09-09T07:38:48;17.90;99.90
2158;DHT22;41972;48.774;9.282;2022-09-09T07:41:20;18.60;99.90
2158;DHT22;41972;48.774;9.282;2022-09-09T07:43:48;19.10;99.90
2158;DHT22;41972;48.774;9.282;2022-09-09T07:46:16;19.70;99.90
2158;DHT22;41972;48.774;9.282;2022-09-09T07:48:46;19.20;99.90
2158;DHT22;41972;48.774;9.282;2022-09-09T07:51:15;18.40;99.90
2158;DHT22;41972;48.774;9.282;2022-09-09T07:53:45;18.70;99.90
2158;DHT22;41972;48.774;9.282;2022-09-09T07:56:15;19.50;99.90
2158;DHT22;41972;48.774;9.282;2022-09-09T07:58:45;20.40;99.90
2158;DHT22;41972;48.774;9.282;2022-09-09T08:01:35;20.90;99.90
2158;DHT22;41972;48.774;9.282;2022-09-09T08:04:06;21.00;99.90
2158;DHT22;41972;48.774;9.282;2022-09-09T08:06:37;21.40;99.90
2158;DHT22;41972;48.774;9.282;2022-09-09T08:09:04;21.90;99.90
2158;DHT22;41972;48.774;9.282;2022-09-09T08:11:30;22.90;99.90
2158;DHT22;41972;48.774;9.282;2022-09-09T08:13:56;24.10;99.90
2158;DHT22;41972;48.774;9.282;2022-09-09T08:16:24;24.60;99.90
2158;DHT22;41972;48.774;9.282;2022-09-09T08:18:51;24.30;99.90
2158;DHT22;41972;48.774;9.282;2022-09-09T08:21:19;21.40;99.90
2158;DHT22;41972;48.774;9.282;2022-09-09T08:23:47;20.30;99.90
2158;DHT22;41972;48.774;9.282;2022-09-09T08:26:20;20.10;99.90
2158;DHT22;41972;48.774;9.282;2022-09-09T08:28:50;20.50;99.90
2158;DHT22;41972;48.774;9.282;2022-09-09T08:31:20;22.70;99.90
2158;DHT22;41972;48.774;9.282;2022-09-09T08:33:47;23.70;99.90
2158;DHT22;41972;48.774;9.282;2022-09-09T08:36:16;24.60;99.90
2158;DHT22;41972;48.774;9.282;2022-09-09T08:38:43;24.50;99.90
2158;DHT22;41972;48.774;9.282;2022-09-09T08:53:27;26.20;99.90
2158;DHT22;41972;48.774;9.282;2022-09-09T08:56:05;26.20;99.90
2158;DHT22;41972;48.774;9.282;2022-09-09T08:58:35;28.20;99.90
2158;DHT22;41972;48.774;9.282;2022-09-09T09:06:43;28.00;99.90
2158;DHT22;41972;48.774;9.282;2022-09-09T09:09:26;27.80;99.90
2158;DHT22;41972;48.774;9.282;2022-09-09T09:11:55;25.90;99.90
2158;DHT22;41972;48.774;9.282;2022-09-09T09:14:30;26.80;99.90
2158;DHT22;41972;48.774;9.282;2022-09-09T09:16:58;29.00;99.90
2158;DHT22;41972;48.774;9.282;2022-09-09T09:19:24;25.90;99.90
2158;DHT22;41972;48.774;9.282;2022-09-09T09:25:12;28.30;99.90
2158;DHT22;41972;48.774;9.282;2022-09-09T09:30:21;30.80;99.90
2158;DHT22;41972;48.774;9.282;2022-09-09T09:32:58;30.60;99.90
2158;DHT22;41972;48.774;9.282;2022-09-09T09:35:25;30.10;99.90
2158;DHT22;41972;48.774;9.282;2022-09-09T09:37:51;27.20;99.90
2158;DHT22;41972;48.774;9.282;2022-09-09T09:40:20;25.00;99.90
2158;DHT22;41972;48.774;9.282;2022-09-09T09:45:41;21.40;99.90
2158;DHT22;41972;48.774;9.282;2022-09-09T09:48:11;20.00;99.90
2158;DHT22;41972;48.774;9.282;2022-09-09T09:50:59;22.10;99.90
2158;DHT22;41972;48.774;9.282;2022-09-09T09:53:29;24.80;99.90
2158;DHT22;41972;48.774;9.282;2022-09-09T09:56:01;27.00;99.90
2158;DHT22;41972;48.774;9.282;2022-09-09T09:58:30;30.50;99.90
2158;DHT22;41972;48.774;9.282;2022-09-09T10:00:59;30.70;99.90
2158;DHT22;41972;48.774;9.282;2022-09-09T10:03:31;31.70;99.90
2158;DHT22;41972;48.774;9.282;2022-09-09T10:05:57;30.70;99.90
2158;DHT22;41972;48.774;9.282;2022-09-09T10:08:27;33.40;99.90
2158;DHT22;41972;48.774;9.282;2022-09-09T10:11:05;34.00;99.90
2158;DHT22;41972;48.774;9.282;2022-09-09T10:13:42;32.50;99.90
2158;DHT22;41972;48.774;9.282;2022-09-09T10:16:38;32.90;99.90
2158;DHT22;41972;48.774;9.282;2022-09-09T10:19:12;32.00;99.90
2158;DHT22;41972;48.774;9.282;2022-09-09T10:22:11;32.20;99.90
2158;DHT22;41972;48.774;9.282;2022-09-09T10:33:09;31.90;99.90
2158;DHT22;41972;48.774;9.282;2022-09-09T10:41:57;30.30;99.90
2158;DHT22;41972;48.774;9.282;2022-09-09T10:47:21;31.90;99.90
2158;DHT22;41972;48.774;9.282;2022-09-09T10:50:18;29.80;99.90
2158;DHT22;41972;48.774;9.282;2022-09-09T10:55:27;29.00;99.90
2158;DHT22;41972;48.774;9.282;2022-09-09T10:57:58;29.40;99.90
2158;DHT22;41972;48.774;9.282;2022-09-09T11:03:02;29.00;99.90
2158;DHT22;41972;48.774;9.282;2022-09-09T11:05:44;27.40;99.90
2158;DHT22;41972;48.774;9.282;2022-09-09T11:08:20;26.70;99.90
2158;DHT22;41972;48.774;9.282;2022-09-09T11:11:25;26.30;99.90
2158;DHT22;41972;48.774;9.282;2022-09-09T11:16:43;25.40;99.90
2158;DHT22;41972;48.774;9.282;2022-09-09T11:19:30;25.10;99.90
2158;DHT22;41972;48.774;9.282;2022-09-09T11:22:08;23.80;99.90
2158;DHT22;41972;48.774;9.282;2022-09-09T11:24:55;24.50;99.90
2158;DHT22;41972;48.774;9.282;2022-09-09T11:30:19;23.70;99.90
2158;DHT22;41972;48.774;9.282;2022-09-09T11:33:06;23.60;99.90
2158;DHT22;41972;48.774;9.282;2022-09-09T11:35:46;23.30;99.90
2158;DHT22;41972;48.774;9.282;2022-09-09T11:41:01;21.30;99.90
2158;DHT22;41972;48.774;9.282;2022-09-09T11:43:45;20.60;99.90
2158;DHT22;41972;48.774;9.282;2022-09-09T11:46:13;20.20;99.90
2158;DHT22;41972;48.774;9.282;2022-09-09T11:48:42;19.80;99.90
2158;DHT22;41972;48.774;9.282;2022-09-09T11:54:01;19.30;99.90
2158;DHT22;41972;48.774;9.282;2022-09-09T11:56:30;19.50;99.90
2158;DHT22;41972;48.774;9.282;2022-09-09T11:59:05;19.70;99.90
2158;DHT22;41972;48.774;9.282;2022-09-09T12:09:25;20.50;99.90
2158;DHT22;41972;48.774;9.282;2022-09-09T12:11:52;21.10;99.90
2158;DHT22;41972;48.774;9.282;2022-09-09T12:14:34;20.80;99.90
2158;DHT22;41972;48.774;9.282;2022-09-09T12:17:22;20.80;99.90
2158;DHT22;41972;48.774;9.282;2022-09-09T12:19:48;21.30;99.90
2158;DHT22;41972;48.774;9.282;2022-09-09T12:22:38;22.00;99.90
2158;DHT22;41972;48.774;9.282;2022-09-09T12:28:09;22.10;99.90
2158;DHT22;41972;48.774;9.282;2022-09-09T12:30:49;21.80;99.90
2158;DHT22;41972;48.774;9.282;2022-09-09T12:33:18;22.00;99.90
2158;DHT22;41972;48.774;9.282;2022-09-09T12:35:47;22.10;99.90
2158;DHT22;41972;48.774;9.282;2022-09-09T12:38:27;21.00;99.90
2158;DHT22;41972;48.774;9.282;2022-09-09T12:40:55;21.50;99.90
2158;DHT22;41972;48.774;9.282;2022-09-09T12:43:23;21.70;99.90
2158;DHT22;41972;48.774;9.282;2022-09-09T12:45:52;21.80;99.90
2158;DHT22;41972;48.774;9.282;2022-09-09T12:48:27;21.60;99.90
2158;DHT22;41972;48.774;9.282;2022-09-09T12:50:53;21.10;99.90
2158;DHT22;41972;48.774;9.282;2022-09-09T12:56:18;21.50;99.90
2158;DHT22;41972;48.774;9.282;2022-09-09T12:58:47;21.50;99.90
2158;DHT22;41972;48.774;9.282;2022-09-09T13:01:43;22.00;99.90
2158;DHT22;41972;48.774;9.282;2022-09-09T13:04:20;22.00;99.90
2158;DHT22;41972;48.774;9.282;2022-09-09T13:06:47;22.30;99.90
2158;DHT22;41972;48.774;9.282;2022-09-09T13:09:13;22.30;99.90
2158;DHT22;41972;48.774;9.282;2022-09-09T13:11:41;23.10;99.90
2158;DHT22;41972;48.774;9.282;2022-09-09T13:14:21;23.20;99.90
2158;DHT22;41972;48.774;9.282;2022-09-09T13:16:57;22.80;99.90
2158;DHT22;41972;48.774;9.282;2022-09-09T13:19:23;22.00;99.90
2158;DHT22;41972;48.774;9.282;2022-09-09T13:21:53;21.70;99.90
2158;DHT22;41972;48.774;9.282;2022-09-09T13:24:31;21.80;99.90
2158;DHT22;41972;48.774;9.282;2022-09-09T13:26:58;21.70;99.90
2158;DHT22;41972;48.774;9.282;2022-09-09T13:29:27;22.20;99.90
2158;DHT22;41972;48.774;9.282;2022-09-09T13:31:53;22.70;99.90
2158;DHT22;41972;48.774;9.282;2022-09-09T13:34:30;22.80;99.90
2158;DHT22;41972;48.774;9.282;2022-09-09T13:37:07;23.10;99.90
2158;DHT22;41972;48.774;9.282;2022-09-09T13:39:39;23.40;99.90
2158;DHT22;41972;48.774;9.282;2022-09-09T13:42:05;22.60;99.90
2158;DHT22;41972;48.774;9.282;2022-09-09T13:44:36;22.90;99.90
2158;DHT22;41972;48.774;9.282;2022-09-09T13:47:18;23.20;99.90
2158;DHT22;41972;48.774;9.282;2022-09-09T13:49:47;23.50;99.90
2158;DHT22;41972;48.774;9.282;2022-09-09T13:52:17;23.50;99.90
2158;DHT22;41972;48.774;9.282;2022-09-09T13:54:48;23.50;99.90
2158;DHT22;41972;48.774;9.282;2022-09-09T13:57:24;23.50;99.90
2158;DHT22;41972;48.774;9.282;2022-09-09T13:59:51;23.10;99.90
2158;DHT22;41972;48.774;9.282;2022-09-09T14:02:17;22.80;99.90
2158;DHT22;41972;48.774;9.282;2022-09-09T14:04:43;22.60;99.90
2158;DHT22;41972;48.774;9.282;2022-09-09T14:07:12;22.50;99.90
2158;DHT22;41972;48.774;9.282;2022-09-09T14:09:39;22.20;99.90
2158;DHT22;41972;48.774;9.282;2022-09-09T14:12:04;22.10;99.90
2158;DHT22;41972;48.774;9.282;2022-09-09T14:14:30;22.00;99.90
2158;DHT22;41972;48.774;9.282;2022-09-09T14:16:56;21.30;99.90
2158;DHT22;41972;48.774;9.282;2022-09-09T14:19:21;21.40;99.90
2158;DHT22;41972;48.774;9.282;2022-09-09T14:21:47;21.80;99.90
2158;DHT22;41972;48.774;9.282;2022-09-09T14:24:13;22.10;99.90
2158;DHT22;41972;48.774;9.282;2022-09-09T14:26:39;22.20;99.90
2158;DHT22;41972;48.774;9.282;2022-09-09T14:29:05;22.50;99.90
2158;DHT22;41972;48.774;9.282;2022-09-09T14:31:30;22.40;99.90
2158;DHT22;41972;48.774;9.282;2022-09-09T14:33:56;22.30;99.90
2158;DHT22;41972;48.774;9.282;2022-09-09T14:36:21;22.40;99.90
2158;DHT22;41972;48.774;9.282;2022-09-09T14:38:48;22.40;99.90
2158;DHT22;41972;48.774;9.282;2022-09-09T14:41:16;22.50;99.90
2158;DHT22;41972;48.774;9.282;2022-09-09T14:43:45;22.80;99.90
2158;DHT22;41972;48.774;9.282;2022-09-09T14:46:16;22.80;99.90
2158;DHT22;41972;48.774;9.282;2022-09-09T14:48:42;22.70;99.90
2158;DHT22;41972;48.774;9.282;2022-09-09T14:51:11;22.70;99.90
2158;DHT22;41972;48.774;9.282;2022-09-09T14:53:38;22.60;99.90
2158;DHT22;41972;48.774;9.282;2022-09-09T14:56:09;22.40;99.90
2158;DHT22;41972;48.774;9.282;2022-09-09T14:58:36;22.50;99.90
2158;DHT22;41972;48.774;9.282;2022-09-09T15:01:08;22.10;99.90
2158;DHT22;41972;48.774;9.282;2022-09-09T15:03:36;22.00;99.90
2158;DHT22;41972;48.774;9.282;2022-09-09T15:06:13;21.80;99.90
2158;DHT22;41972;48.774;9.282;2022-09-09T15:08:41;21.80;99.90
2158;DHT22;41972;48.774;9.282;2022-09-09T15:11:07;21.90;99.90
2158;DHT22;41972;48.774;9.282;2022-09-09T15:13:34;22.20;99.90
2158;DHT22;41972;48.774;9.282;2022-09-09T15:16:08;22.50;99.90
2158;DHT22;41972;48.774;9.282;2022-09-09T15:18:34;22.20;99.90
2158;DHT22;41972;48.774;9.282;2022-09-09T15:21:02;22.10;99.90
2158;DHT22;41972;48.774;9.282;2022-09-09T15:23:32;22.00;99.90
2158;DHT22;41972;48.774;9.282;2022-09-09T15:25:58;21.80;99.90
2158;DHT22;41972;48.774;9.282;2022-09-09T15:28:23;21.70;99.90
2158;DHT22;41972;48.774;9.282;2022-09-09T15:30:50;21.60;99.90
2158;DHT22;41972;48.774;9.282;2022-09-09T15:33:17;21.50;99.90
2158;DHT22;41972;48.774;9.282;2022-09-09T15:35:42;21.30;99.90
2158;DHT22;41972;48.774;9.282;2022-09-09T15:38:08;21.30;99.90
2158;DHT22;41972;48.774;9.282;2022-09-09T15:40:33;21.30;99.90
2158;DHT22;41972;48.774;9.282;2022-09-09T15:42:59;21.30;99.90
2158;DHT22;41972;48.774;9.282;2022-09-09T15:45:25;21.40;99.90
2158;DHT22;41972;48.774;9.282;2022-09-09T15:47:50;21.50;99.90
2158;DHT22;41972;48.774;9.282;2022-09-09T15:50:17;21.50;99.90
2158;DHT22;41972;48.774;9.282;2022-09-09T15:52:42;21.30;99.90
2158;DHT22;41972;48.774;9.282;2022-09-09T15:55:08;21.30;99.90
2158;DHT22;41972;48.774;9.282;2022-09-09T15:57:34;21.20;99.90
2158;DHT22;41972;48.774;9.282;2022-09-09T16:00:01;21.00;99.90
2158;DHT22;41972;48.774;9.282;2022-09-09T16:02:28;20.80;99.90
2158;DHT22;41972;48.774;9.282;2022-09-09T16:04:53;20.70;99.90
2158;DHT22;41972;48.774;9.282;2022-09-09T16:07:18;20.60;99.90
2158;DHT22;41972;48.774;9.282;2022-09-09T16:09:44;20.50;99.90
2158;DHT22;41972;48.774;9.282;2022-09-09T16:12:10;20.50;99.90
2158;DHT22;41972;48.774;9.282;2022-09-09T16:14:37;20.30;99.90
2158;DHT22;41972;48.774;9.282;2022-09-09T16:17:05;20.40;99.90
2158;DHT22;41972;48.774;9.282;2022-09-09T16:19:31;20.30;99.90
2158;DHT22;41972;48.774;9.282;2022-09-09T16:21:57;20.20;99.90
2158;DHT22;41972;48.774;9.282;2022-09-09T16:24:23;20.30;99.90
2158;DHT22;41972;48.774;9.282;2022-09-09T16:26:52;20.20;99.90
2158;DHT22;41972;48.774;9.282;2022-09-09T16:29:18;20.10;99.90
2158;DHT22;41972;48.774;9.282;2022-09-09T16:31:45;20.10;99.90
2158;DHT22;41972;48.774;9.282;2022-09-09T16:34:12;20.10;99.90
2158;DHT22;41972;48.774;9.282;2022-09-09T16:36:40;20.10;99.90
2158;DHT22;41972;48.774;9.282;2022-09-09T16:39:08;20.10;99.90
2158;DHT22;41972;48.774;9.282;2022-09-09T16:41:35;20.10;99.90
2158;DHT22;41972;48.774;9.282;2022-09-09T16:44:03;20.20;99.90
2158;DHT22;41972;48.774;9.282;2022-09-09T16:46:30;20.10;99.90
2158;DHT22;41972;48.774;9.282;2022-09-09T16:48:58;20.00;99.90
2158;DHT22;41972;48.774;9.282;2022-09-09T16:51:28;19.90;99.90
2158;DHT22;41972;48.774;9.282;2022-09-09T16:53:54;19.90;99.90
2158;DHT22;41972;48.774;9.282;2022-09-09T16:56:23;19.70;99.90
2158;DHT22;41972;48.774;9.282;2022-09-09T16:58:55;19.50;99.90
2158;DHT22;41972;48.774;9.282;2022-09-09T17:01:22;19.50;99.90
2158;DHT22;41972;48.774;9.282;2022-09-09T17:04:11;19.50;99.90
2158;DHT22;41972;48.774;9.282;2022-09-09T17:06:37;19.40;99.90
2158;DHT22;41972;48.774;9.282;2022-09-09T17:09:08;19.30;99.90
2158;DHT22;41972;48.774;9.282;2022-09-09T17:11:35;19.20;99.90
2158;DHT22;41972;48.774;9.282;2022-09-09T17:14:01;19.20;99.90
2158;DHT22;41972;48.774;9.282;2022-09-09T17:16:29;19.20;99.90
2158;DHT22;41972;48.774;9.282;2022-09-09T17:18:56;19.10;99.90
2158;DHT22;41972;48.774;9.282;2022-09-09T17:21:23;19.00;99.90
2158;DHT22;41972;48.774;9.282;2022-09-09T17:23:51;18.80;99.90
2158;DHT22;41972;48.774;9.282;2022-09-09T17:26:20;18.80;99.90
2158;DHT22;41972;48.774;9.282;2022-09-09T17:28:46;18.50;99.90
2158;DHT22;41972;48.774;9.282;2022-09-09T17:31:14;18.50;99.90
2158;DHT22;41972;48.774;9.282;2022-09-09T17:33:42;18.30;99.90
2158;DHT22;41972;48.774;9.282;2022-09-09T17:36:17;18.20;99.90
2158;DHT22;41972;48.774;9.282;2022-09-09T17:38:43;18.00;99.90
2158;DHT22;41972;48.774;9.282;2022-09-09T17:41:18;18.00;99.90
2158;DHT22;41972;48.774;9.282;2022-09-09T17:43:44;17.90;99.90
2158;DHT22;41972;48.774;9.282;2022-09-09T17:46:19;17.80;99.90
2158;DHT22;41972;48.774;9.282;2022-09-09T17:48:48;17.70;99.90
2158;DHT22;41972;48.774;9.282;2022-09-09T17:51:16;17.60;99.90
2158;DHT22;41972;48.774;9.282;2022-09-09T17:53:46;17.50;99.90
2158;DHT22;41972;48.774;9.282;2022-09-09T17:56:14;17.60;99.90
2158;DHT22;41972;48.774;9.282;2022-09-09T17:58:40;17.70;99.90
2158;DHT22;41972;48.774;9.282;2022-09-09T18:01:10;17.80;99.90
2158;DHT22;41972;48.774;9.282;2022-09-09T18:03:41;17.70;99.90
2158;DHT22;41972;48.774;9.282;2022-09-09T18:06:14;17.70;99.90